Time;durP1;ratioP1;P1;durP2;ratioP2;P2;SDS_P1;SDS_P2;PMS_P1;PMS_P2;Temp;Humidity;BMP_temperature;BMP_pressure;BME280_temperature;BME280_humidity;BME280_pressure;Samples;Min_cycle;Max_cycle;Signal;HPM_P1;HPM_P2
2024/01/07 00:01:02;;;;;;;2.55;1.88;;;5.00;99.90;;;;;;4955692;28;20031;-76
2024/01/07 00:03:27;;;;;;;2.38;1.70;;;4.90;99.90;;;;;;4954553;29;20379;-77
2024/01/07 00:05:53;;;;;;;5.13;2.67;;;4.90;99.90;;;;;;4955568;29;20030;-76
2024/01/07 00:08:18;;;;;;;5.13;1.98;;;4.90;99.90;;;;;;4955312;29;20027;-76
2024/01/07 00:10:44;;;;;;;3.35;1.90;;;4.90;99.90;;;;;;4955430;28;20054;-76
2024/01/07 00:13:10;;;;;;;4.55;1.92;;;4.90;99.90;;;;;;4955618;29;20039;-76
2024/01/07 00:15:37;;;;;;;4.72;1.60;;;4.90;99.90;;;;;;4954384;29;20113;-76
2024/01/07 00:18:02;;;;;;;2.20;1.30;;;4.90;99.90;;;;;;4954507;28;20026;-76
2024/01/07 00:20:28;;;;;;;2.47;1.55;;;4.90;99.90;;;;;;4954052;28;20027;-76
2024/01/07 00:22:53;;;;;;;1.00;1.00;;;4.80;99.90;;;;;;4954081;29;20441;-76
2024/01/07 00:25:19;;;;;;;2.15;1.30;;;4.90;99.90;;;;;;4954086;29;20025;-76
2024/01/07 00:27:45;;;;;;;1.15;1.00;;;4.90;99.90;;;;;;4955184;29;20024;-76
2024/01/07 00:30:11;;;;;;;2.05;1.02;;;4.90;99.90;;;;;;4955252;29;20027;-76
2024/01/07 00:32:36;;;;;;;3.75;1.45;;;4.90;99.90;;;;;;4955023;28;20038;-76
2024/01/07 00:35:03;;;;;;;1.65;1.25;;;4.90;99.90;;;;;;4955081;29;20027;-76
2024/01/07 00:37:28;;;;;;;2.83;1.83;;;4.90;99.90;;;;;;4954934;29;20034;-76
2024/01/07 00:39:54;;;;;;;4.53;1.80;;;5.00;99.90;;;;;;4955207;29;20027;-76
2024/01/07 00:42:20;;;;;;;2.40;1.73;;;5.00;99.90;;;;;;4953700;28;20178;-76
2024/01/07 00:44:46;;;;;;;2.25;1.35;;;5.00;99.90;;;;;;4955006;29;20031;-76
2024/01/07 00:47:12;;;;;;;2.20;1.40;;;5.00;99.90;;;;;;4954879;29;20035;-76
2024/01/07 00:49:39;;;;;;;2.08;1.27;;;5.10;99.90;;;;;;4954382;29;20158;-76
2024/01/07 00:52:05;;;;;;;1.45;1.30;;;5.00;99.90;;;;;;4954767;28;20477;-76
2024/01/07 00:54:30;;;;;;;2.00;1.40;;;5.00;99.90;;;;;;4954836;29;20031;-76
2024/01/07 00:56:56;;;;;;;1.20;0.80;;;5.00;99.90;;;;;;4954741;29;20016;-76
2024/01/07 00:59:22;;;;;;;2.13;0.95;;;5.40;99.90;;;;;;4954448;29;20442;-76
2024/01/07 01:01:47;;;;;;;2.40;1.33;;;5.10;99.90;;;;;;4954660;28;20094;-76
2024/01/07 01:04:13;;;;;;;2.10;1.33;;;5.10;99.90;;;;;;4954563;29;20082;-76
2024/01/07 01:06:39;;;;;;;1.60;1.50;;;5.10;99.90;;;;;;4953275;29;20067;-76
2024/01/07 01:09:04;;;;;;;2.30;1.48;;;5.00;99.90;;;;;;4953053;29;20095;-76
2024/01/07 01:11:30;;;;;;;1.05;1.05;;;5.00;99.90;;;;;;4954239;28;20077;-76
2024/01/07 01:13:55;;;;;;;1.65;0.70;;;5.00;99.90;;;;;;4954503;29;20474;-76
2024/01/07 01:16:21;;;;;;;0.65;0.50;;;5.00;99.90;;;;;;4953185;29;20024;-76
2024/01/07 01:18:46;;;;;;;0.68;0.30;;;5.10;99.90;;;;;;4954072;29;20024;-76
2024/01/07 01:21:12;;;;;;;0.50;0.50;;;5.10;99.90;;;;;;4953086;28;20027;-76
2024/01/07 01:23:38;;;;;;;0.52;0.40;;;5.10;99.90;;;;;;4954410;29;20085;-76
2024/01/07 01:26:04;;;;;;;0.77;0.30;;;5.10;99.90;;;;;;4952959;29;20593;-76
2024/01/07 01:28:29;;;;;;;0.85;0.52;;;5.10;99.90;;;;;;4952710;29;20037;-76
2024/01/07 01:30:55;;;;;;;0.50;0.50;;;5.10;99.90;;;;;;4954093;28;20035;-76
2024/01/07 01:33:20;;;;;;;0.45;0.45;;;5.10;99.90;;;;;;4952663;29;20486;-76
2024/01/07 01:35:46;;;;;;;0.80;0.57;;;5.20;99.90;;;;;;4952929;29;20023;-76
2024/01/07 01:38:12;;;;;;;1.83;0.40;;;5.20;99.90;;;;;;4953846;29;20049;-76
2024/01/07 01:40:38;;;;;;;0.28;0.28;;;5.10;99.90;;;;;;4954024;28;20035;-76
2024/01/07 01:43:04;;;;;;;0.30;0.20;;;5.10;99.90;;;;;;4954060;29;20034;-76
2024/01/07 01:45:29;;;;;;;1.08;0.55;;;5.10;99.90;;;;;;4954020;29;20031;-76
2024/01/07 01:47:55;;;;;;;0.75;0.38;;;5.10;99.90;;;;;;4953628;29;20409;-76
2024/01/07 01:50:22;;;;;;;0.28;0.28;;;5.20;99.90;;;;;;4953819;28;20498;-75
2024/01/07 01:52:48;;;;;;;0.30;0.30;;;5.10;99.90;;;;;;4952619;29;20458;-76
2024/01/07 01:55:14;;;;;;;0.70;0.38;;;5.10;99.90;;;;;;4954057;29;20026;-76
2024/01/07 01:57:41;;;;;;;1.80;0.60;;;5.20;99.90;;;;;;4953667;29;20038;-76
2024/01/07 02:00:08;;;;;;;2.08;0.57;;;5.10;99.90;;;;;;4952601;29;20055;-76
2024/01/07 02:02:34;;;;;;;0.13;0.13;;;5.20;99.90;;;;;;4953631;28;20027;-76
2024/01/07 02:05:03;;;;;;;0.40;0.30;;;5.10;99.90;;;;;;4952531;29;20031;-76
2024/01/07 02:07:31;;;;;;;0.40;0.40;;;5.10;99.90;;;;;;4953572;29;20111;-76
2024/01/07 02:09:56;;;;;;;0.43;0.22;;;5.10;99.90;;;;;;4953749;29;20038;-76
2024/01/07 02:12:22;;;;;;;0.30;0.30;;;5.10;99.90;;;;;;4986728;23;20047;-75
2024/01/07 02:14:48;;;;;;;0.32;0.17;;;5.20;99.90;;;;;;4973868;28;20138;-76
2024/01/07 02:17:15;;;;;;;0.77;0.45;;;5.20;99.90;;;;;;4973238;28;20512;-74
2024/01/07 02:19:40;;;;;;;1.23;0.40;;;5.20;99.90;;;;;;4972822;28;20101;-75
2024/01/07 02:22:06;;;;;;;0.22;0.22;;;5.20;99.90;;;;;;4973690;28;20433;-77
2024/01/07 02:24:32;;;;;;;0.55;0.40;;;5.20;99.90;;;;;;4975293;28;20113;-76
2024/01/07 02:27:02;;;;;;;0.10;0.10;;;5.20;99.90;;;;;;4973423;28;20481;-76
2024/01/07 02:29:28;;;;;;;0.43;0.10;;;5.20;99.90;;;;;;4973352;28;20401;-74
2024/01/07 02:31:53;;;;;;;0.17;0.17;;;5.20;99.90;;;;;;4973208;28;20027;-76
2024/01/07 02:34:19;;;;;;;0.30;0.20;;;5.10;99.90;;;;;;4974952;28;20030;-77
2024/01/07 02:36:44;;;;;;;0.17;0.10;;;5.20;99.90;;;;;;4974605;28;20105;-79
2024/01/07 02:39:10;;;;;;;0.35;0.30;;;5.10;99.90;;;;;;4972672;28;20050;-78
2024/01/07 02:41:36;;;;;;;0.22;0.20;;;5.10;99.90;;;;;;4974994;28;20023;-75
2024/01/07 02:44:01;;;;;;;0.30;0.20;;;5.00;99.90;;;;;;4978749;28;20031;-74
2024/01/07 02:46:27;;;;;;;0.88;0.20;;;5.10;99.90;;;;;;4977777;28;20031;-76
2024/01/07 02:48:53;;;;;;;0.10;0.10;;;5.10;99.90;;;;;;4978634;28;20048;-77
2024/01/07 02:51:19;;;;;;;0.10;0.10;;;5.10;99.90;;;;;;4978495;28;20031;-76
2024/01/07 02:53:44;;;;;;;0.40;0.20;;;5.10;99.90;;;;;;4976854;28;20452;-75
2024/01/07 02:56:10;;;;;;;0.10;0.10;;;5.20;99.90;;;;;;4977734;28;20389;-74
2024/01/07 02:58:36;;;;;;;2.17;0.20;;;5.20;99.90;;;;;;4976511;28;20019;-76
2024/01/07 03:01:01;;;;;;;0.10;0.10;;;5.20;99.90;;;;;;4977803;28;20117;-75
2024/01/07 03:03:27;;;;;;;0.70;0.30;;;5.10;99.90;;;;;;4977840;28;20074;-75
2024/01/07 03:05:52;;;;;;;0.47;0.47;;;5.10;99.90;;;;;;4978349;28;20026;-77
2024/01/07 03:08:18;;;;;;;0.10;0.10;;;5.10;99.90;;;;;;4983805;28;20030;-77
2024/01/07 03:10:44;;;;;;;0.10;0.10;;;5.10;99.90;;;;;;4993311;28;20031;-76
2024/01/07 03:13:09;;;;;;;0.10;0.10;;;5.00;99.90;;;;;;4992952;28;20037;-77
2024/01/07 03:15:35;;;;;;;0.60;0.20;;;5.00;99.90;;;;;;4988227;28;20552;-75
2024/01/07 03:18:00;;;;;;;0.00;0.00;;;5.10;99.90;;;;;;4975880;28;20023;-77
2024/01/07 03:20:27;;;;;;;0.00;0.00;;;5.00;99.90;;;;;;4977958;28;20031;-74
2024/01/07 03:22:53;;;;;;;0.10;0.10;;;5.00;99.90;;;;;;4976105;28;20034;-76
2024/01/07 03:25:18;;;;;;;0.10;0.10;;;5.10;99.90;;;;;;4977943;28;20046;-76
2024/01/07 03:27:44;;;;;;;0.28;0.28;;;5.00;99.90;;;;;;4977208;28;20041;-75
2024/01/07 03:30:10;;;;;;;0.10;0.10;;;5.00;99.90;;;;;;4976077;28;20042;-75
2024/01/07 03:32:36;;;;;;;0.30;0.20;;;5.00;99.90;;;;;;4977435;28;20027;-76
2024/01/07 03:35:02;;;;;;;0.15;0.15;;;5.00;99.90;;;;;;4978148;28;20532;-77
2024/01/07 03:37:28;;;;;;;0.57;0.30;;;5.00;99.90;;;;;;4977299;28;20023;-75
2024/01/07 03:39:54;;;;;;;0.17;0.15;;;5.00;99.90;;;;;;4976138;28;20111;-76
2024/01/07 03:42:20;;;;;;;0.77;0.10;;;4.90;99.90;;;;;;4976022;28;20034;-75
2024/01/07 03:44:45;;;;;;;0.25;0.20;;;4.90;99.90;;;;;;4976262;28;20026;-76
2024/01/07 03:47:11;;;;;;;0.20;0.20;;;4.90;99.90;;;;;;4976771;28;20095;-76
2024/01/07 03:49:37;;;;;;;0.20;0.20;;;4.90;99.90;;;;;;4975420;28;20042;-75
2024/01/07 03:52:04;;;;;;;0.90;0.20;;;4.90;99.90;;;;;;4976419;28;20035;-77
2024/01/07 03:54:30;;;;;;;0.32;0.28;;;4.90;99.90;;;;;;4974507;28;20069;-77
2024/01/07 03:56:55;;;;;;;0.65;0.40;;;4.90;99.90;;;;;;4976292;28;20481;-76
2024/01/07 03:59:23;;;;;;;0.17;0.17;;;4.90;99.90;;;;;;4977023;28;20077;-75
2024/01/07 04:01:48;;;;;;;0.13;0.13;;;4.90;99.90;;;;;;4977249;28;20053;-76
2024/01/07 04:04:14;;;;;;;0.57;0.45;;;4.90;99.90;;;;;;4976870;28;20466;-76
2024/01/07 04:06:40;;;;;;;0.30;0.30;;;4.80;99.90;;;;;;4976473;28;20034;-76
2024/01/07 04:09:05;;;;;;;0.20;0.20;;;4.80;99.90;;;;;;4975051;28;20078;-75
2024/01/07 04:11:31;;;;;;;0.10;0.10;;;4.80;99.90;;;;;;4974968;28;20034;-75
2024/01/07 04:13:57;;;;;;;0.22;0.22;;;4.80;99.90;;;;;;4975470;28;20026;-76
2024/01/07 04:16:22;;;;;;;0.55;0.30;;;4.70;99.90;;;;;;4975874;28;20019;-75
2024/01/07 04:18:48;;;;;;;0.20;0.20;;;4.70;99.90;;;;;;4974993;28;20026;-75
2024/01/07 04:21:13;;;;;;;0.17;0.17;;;4.70;99.90;;;;;;4976867;28;20382;-75
2024/01/07 04:23:43;;;;;;;0.10;0.10;;;4.70;99.90;;;;;;4974691;28;20035;-75
2024/01/07 04:26:09;;;;;;;0.20;0.20;;;4.70;99.90;;;;;;4974958;28;20019;-77
2024/01/07 04:28:35;;;;;;;0.30;0.10;;;4.70;99.90;;;;;;4976197;28;20532;-76
2024/01/07 04:31:00;;;;;;;0.43;0.20;;;4.60;99.90;;;;;;4976460;28;20026;-75
2024/01/07 04:33:26;;;;;;;0.22;0.22;;;4.60;99.90;;;;;;4974830;28;20501;-75
2024/01/07 04:35:52;;;;;;;1.05;0.40;;;4.60;99.90;;;;;;4974647;28;20512;-75
2024/01/07 04:38:17;;;;;;;0.20;0.20;;;4.60;99.90;;;;;;4974784;28;20023;-75
2024/01/07 04:40:43;;;;;;;0.20;0.20;;;4.60;99.90;;;;;;4975614;28;20027;-76
2024/01/07 04:43:08;;;;;;;0.22;0.22;;;4.60;99.90;;;;;;4974367;28;20038;-75
2024/01/07 04:45:34;;;;;;;0.82;0.50;;;4.60;99.90;;;;;;4974878;28;20023;-75
2024/01/07 04:48:00;;;;;;;1.45;0.60;;;4.50;99.90;;;;;;4976111;28;20058;-78
2024/01/07 04:50:25;;;;;;;0.65;0.47;;;4.60;99.90;;;;;;4976476;28;20516;-76
2024/01/07 04:52:51;;;;;;;0.93;0.40;;;4.50;99.90;;;;;;4975869;28;20074;-75
2024/01/07 04:55:17;;;;;;;0.35;0.30;;;4.50;99.90;;;;;;4975159;28;20027;-76
2024/01/07 04:57:43;;;;;;;0.40;0.30;;;4.50;99.90;;;;;;4975634;28;20486;-78
2024/01/07 05:00:09;;;;;;;0.20;0.20;;;4.50;99.90;;;;;;4974544;28;20031;-77
2024/01/07 05:02:35;;;;;;;0.95;0.38;;;4.40;99.90;;;;;;4974093;28;20023;-76
2024/01/07 05:05:01;;;;;;;1.45;0.32;;;4.40;99.90;;;;;;4973942;28;20114;-77
2024/01/07 05:07:27;;;;;;;2.30;0.50;;;4.40;99.90;;;;;;4974792;28;20062;-77
2024/01/07 05:09:52;;;;;;;1.08;0.77;;;4.50;99.90;;;;;;4973288;28;20113;-76
2024/01/07 05:12:18;;;;;;;1.38;0.43;;;4.40;99.90;;;;;;4973048;28;20100;-75
2024/01/07 05:14:43;;;;;;;0.22;0.22;;;4.40;99.90;;;;;;4974617;28;20022;-75
2024/01/07 05:17:09;;;;;;;0.80;0.68;;;4.30;99.90;;;;;;4974098;28;20027;-76
2024/01/07 05:19:35;;;;;;;0.75;0.63;;;4.30;99.90;;;;;;4975414;28;20029;-76
2024/01/07 05:22:01;;;;;;;1.02;0.43;;;4.20;99.90;;;;;;4974478;28;20389;-77
2024/01/07 05:24:26;;;;;;;0.85;0.60;;;4.30;99.90;;;;;;4973397;28;20030;-75
2024/01/07 05:26:52;;;;;;;1.00;0.47;;;4.30;99.90;;;;;;4973013;28;20034;-77
2024/01/07 05:29:18;;;;;;;0.30;0.30;;;4.30;99.90;;;;;;4974521;28;20031;-76
2024/01/07 05:31:44;;;;;;;1.15;0.65;;;4.30;99.90;;;;;;4972133;28;20031;-77
2024/01/07 05:34:09;;;;;;;5.70;2.30;;;4.30;99.90;;;;;;4974983;28;20026;-77
2024/01/07 05:36:35;;;;;;;0.77;0.73;;;4.20;99.90;;;;;;4973001;28;20030;-75
2024/01/07 05:39:01;;;;;;;0.68;0.40;;;4.20;99.90;;;;;;4973934;28;20026;-77
2024/01/07 05:41:27;;;;;;;0.63;0.60;;;4.20;99.90;;;;;;4973343;28;20397;-76
2024/01/07 05:43:52;;;;;;;1.30;0.80;;;4.10;99.90;;;;;;4973879;28;20029;-75
2024/01/07 05:46:18;;;;;;;0.70;0.65;;;4.10;99.90;;;;;;4973802;28;20382;-76
2024/01/07 05:48:45;;;;;;;1.55;1.08;;;4.10;99.90;;;;;;4974816;28;20126;-76
2024/01/07 05:51:12;;;;;;;1.02;0.98;;;4.10;99.90;;;;;;4974859;28;20031;-76
2024/01/07 05:53:37;;;;;;;1.13;0.98;;;4.10;99.90;;;;;;4973380;28;20027;-76
2024/01/07 05:56:03;;;;;;;0.70;0.70;;;4.10;99.90;;;;;;4973149;28;20575;-76
2024/01/07 05:58:29;;;;;;;2.35;0.95;;;4.10;99.90;;;;;;4973310;28;20029;-75
2024/01/07 06:00:55;;;;;;;0.50;0.50;;;4.10;99.90;;;;;;4973753;28;20393;-75
2024/01/07 06:03:21;;;;;;;2.05;0.85;;;4.00;99.90;;;;;;4974759;28;20034;-75
2024/01/07 06:05:46;;;;;;;1.08;0.80;;;4.00;99.90;;;;;;4975067;28;20085;-75
2024/01/07 06:08:12;;;;;;;1.08;0.73;;;4.00;99.90;;;;;;4974815;28;20031;-77
2024/01/07 06:10:39;;;;;;;2.67;0.95;;;4.00;99.90;;;;;;4973849;28;20109;-77
2024/01/07 06:13:05;;;;;;;2.70;1.15;;;4.00;99.90;;;;;;4972768;28;20038;-75
2024/01/07 06:15:30;;;;;;;1.13;0.98;;;3.90;99.90;;;;;;4974223;28;20042;-75
2024/01/07 06:17:56;;;;;;;1.15;1.05;;;3.90;99.90;;;;;;4977552;28;20093;-75
2024/01/07 06:20:21;;;;;;;1.63;1.17;;;3.90;99.90;;;;;;4977254;28;20029;-75
2024/01/07 06:22:47;;;;;;;2.00;1.67;;;3.90;99.90;;;;;;4980337;28;20047;-80
2024/01/07 06:25:13;;;;;;;1.10;1.00;;;3.90;99.90;;;;;;4978480;28;20129;-75
2024/01/07 06:27:39;;;;;;;1.25;1.08;;;3.80;99.90;;;;;;4981134;28;20464;-75
2024/01/07 06:30:06;;;;;;;1.95;1.17;;;3.80;99.90;;;;;;4976707;28;20070;-75
2024/01/07 06:32:32;;;;;;;1.33;1.02;;;3.80;99.90;;;;;;4976710;28;20067;-75
2024/01/07 06:34:58;;;;;;;1.58;1.30;;;3.80;99.90;;;;;;4976854;28;20022;-75
2024/01/07 06:37:24;;;;;;;1.95;1.23;;;3.90;99.90;;;;;;4977902;28;20025;-75
2024/01/07 06:39:49;;;;;;;2.00;1.00;;;3.90;99.90;;;;;;4977779;28;20094;-75
2024/01/07 06:42:15;;;;;;;1.40;1.30;;;3.80;99.90;;;;;;4977725;28;20106;-75
2024/01/07 06:44:41;;;;;;;1.35;1.25;;;3.80;99.90;;;;;;4977902;28;20033;-76
2024/01/07 06:47:07;;;;;;;1.40;1.25;;;3.80;99.90;;;;;;4976824;28;20034;-78
2024/01/07 06:49:33;;;;;;;1.95;1.33;;;4.00;99.90;;;;;;4975854;28;20030;-76
2024/01/07 06:51:58;;;;;;;1.23;0.73;;;4.00;99.90;;;;;;4978789;28;20493;-77
2024/01/07 06:54:25;;;;;;;1.30;1.17;;;3.90;99.90;;;;;;4977294;28;20030;-76
2024/01/07 06:56:51;;;;;;;0.73;0.70;;;3.80;99.90;;;;;;4977424;28;20023;-76
2024/01/07 06:59:16;;;;;;;1.30;1.02;;;3.80;99.90;;;;;;4976653;28;20033;-76
2024/01/07 07:01:42;;;;;;;1.42;1.08;;;3.70;99.90;;;;;;4976571;28;20142;-77
2024/01/07 07:04:07;;;;;;;0.60;0.60;;;3.70;99.90;;;;;;4977488;28;20091;-77
2024/01/07 07:06:34;;;;;;;1.33;1.05;;;3.70;99.90;;;;;;4975983;28;20092;-76
2024/01/07 07:09:00;;;;;;;2.40;0.98;;;3.70;99.90;;;;;;4976290;28;20027;-76
2024/01/07 07:11:25;;;;;;;1.20;0.63;;;3.60;99.90;;;;;;4977112;28;20162;-75
2024/01/07 07:13:51;;;;;;;3.70;1.27;;;3.60;99.90;;;;;;4975972;28;20019;-77
2024/01/07 07:16:17;;;;;;;1.13;0.77;;;3.70;99.90;;;;;;4977204;28;20034;-75
2024/01/07 07:18:43;;;;;;;3.85;1.00;;;3.60;99.90;;;;;;4975542;28;20394;-75
2024/01/07 07:21:08;;;;;;;1.77;1.38;;;3.60;99.90;;;;;;4975618;28;20026;-75
2024/01/07 07:23:34;;;;;;;1.45;1.33;;;3.60;99.90;;;;;;4975186;28;20609;-76
2024/01/07 07:25:59;;;;;;;1.38;1.20;;;3.60;99.90;;;;;;4976602;28;20019;-75
2024/01/07 07:28:25;;;;;;;1.73;1.50;;;3.60;99.90;;;;;;4977748;28;20043;-77
2024/01/07 07:30:52;;;;;;;1.20;1.02;;;3.50;99.90;;;;;;4977587;28;20029;-77
2024/01/07 07:33:18;;;;;;;1.25;1.08;;;3.50;99.90;;;;;;4980712;28;20065;-77
2024/01/07 07:35:44;;;;;;;1.13;1.02;;;3.50;99.90;;;;;;4987980;28;20513;-76
2024/01/07 07:38:10;;;;;;;1.95;0.65;;;3.50;99.90;;;;;;4989257;28;20394;-79
2024/01/07 07:40:35;;;;;;;2.55;1.30;;;3.50;99.90;;;;;;4989587;28;20034;-82
2024/01/07 07:43:01;;;;;;;2.72;1.38;;;3.40;99.90;;;;;;4981131;28;20026;-77
2024/01/07 07:45:26;;;;;;;1.25;1.05;;;3.50;99.90;;;;;;4978533;28;20033;-77
2024/01/07 07:47:52;;;;;;;1.25;1.00;;;3.40;99.90;;;;;;4978306;28;20058;-76
2024/01/07 07:50:18;;;;;;;3.70;1.38;;;3.50;99.90;;;;;;4976867;28;20053;-77
2024/01/07 07:52:43;;;;;;;1.92;1.40;;;3.50;99.90;;;;;;4975435;28;20058;-76
2024/01/07 07:55:09;;;;;;;3.30;1.50;;;3.60;99.90;;;;;;4975499;28;20030;-76
2024/01/07 07:57:35;;;;;;;3.67;1.30;;;3.70;99.90;;;;;;4976026;28;20026;-78
2024/01/07 08:00:02;;;;;;;1.40;1.27;;;3.90;99.90;;;;;;4975054;28;20444;-77
2024/01/07 08:02:27;;;;;;;2.63;0.90;;;3.80;99.90;;;;;;4975125;28;20031;-76
2024/01/07 08:04:53;;;;;;;1.98;1.30;;;3.70;99.90;;;;;;4976140;28;20109;-77
2024/01/07 08:07:18;;;;;;;3.17;1.23;;;3.70;99.90;;;;;;4976199;28;20026;-77
2024/01/07 08:09:44;;;;;;;1.20;0.90;;;3.70;99.90;;;;;;4976117;28;20400;-77
2024/01/07 08:12:11;;;;;;;1.63;1.08;;;3.70;99.90;;;;;;4975866;28;20090;-77
2024/01/07 08:14:40;;;;;;;1.05;0.98;;;3.70;99.90;;;;;;4976399;28;20034;-77
2024/01/07 08:17:07;;;;;;;2.88;1.50;;;3.70;99.90;;;;;;4977292;28;20022;-78
2024/01/07 08:19:32;;;;;;;2.45;1.23;;;3.70;99.90;;;;;;4977135;28;20026;-77
2024/01/07 08:21:58;;;;;;;1.48;1.08;;;3.70;99.90;;;;;;4976956;28;20037;-76
2024/01/07 08:24:24;;;;;;;3.08;1.48;;;3.70;99.90;;;;;;4975384;28;20121;-77
2024/01/07 08:26:50;;;;;;;2.42;1.20;;;3.70;99.90;;;;;;4975725;28;20126;-78
2024/01/07 08:29:16;;;;;;;1.85;1.48;;;3.70;99.90;;;;;;4975410;28;20095;-78
2024/01/07 08:31:42;;;;;;;3.47;1.58;;;3.70;99.90;;;;;;4977620;28;20085;-77
2024/01/07 08:34:08;;;;;;;2.63;1.58;;;3.60;99.90;;;;;;4977057;28;20485;-78
2024/01/07 08:36:33;;;;;;;5.05;1.52;;;3.60;99.90;;;;;;4976383;28;20027;-77
2024/01/07 08:39:00;;;;;;;3.28;1.27;;;3.60;99.90;;;;;;4974509;28;20182;-76
2024/01/07 08:41:25;;;;;;;2.08;1.25;;;3.60;99.90;;;;;;4977609;28;20027;-77
2024/01/07 08:43:52;;;;;;;3.00;1.95;;;3.70;99.90;;;;;;4977416;28;20025;-77
2024/01/07 08:46:20;;;;;;;4.05;2.58;;;3.70;99.90;;;;;;4974780;28;20030;-77
2024/01/07 08:48:45;;;;;;;3.30;2.38;;;3.70;99.90;;;;;;4976502;28;20090;-77
2024/01/07 08:51:11;;;;;;;2.03;1.50;;;3.80;99.90;;;;;;4976370;28;20055;-77
2024/01/07 08:53:38;;;;;;;1.80;1.40;;;3.90;99.90;;;;;;4975179;28;20065;-77
2024/01/07 08:56:04;;;;;;;2.38;1.63;;;3.80;99.90;;;;;;4976104;28;20022;-78
2024/01/07 08:58:29;;;;;;;3.67;1.30;;;3.90;99.90;;;;;;4975795;28;20587;-78
2024/01/07 09:00:55;;;;;;;2.47;1.10;;;3.90;99.90;;;;;;4977167;28;20485;-76
2024/01/07 09:03:21;;;;;;;2.63;1.35;;;3.90;99.90;;;;;;4976389;28;20027;-77
2024/01/07 09:05:46;;;;;;;1.75;1.35;;;3.90;99.90;;;;;;4975611;28;20068;-77
2024/01/07 09:08:14;;;;;;;1.85;1.42;;;3.90;99.90;;;;;;4976392;28;20019;-77
2024/01/07 09:10:40;;;;;;;1.13;1.02;;;3.90;99.90;;;;;;4976239;28;20378;-76
2024/01/07 09:13:06;;;;;;;2.03;1.63;;;4.00;99.90;;;;;;4975549;28;20034;-76
2024/01/07 09:15:31;;;;;;;3.47;1.60;;;4.10;99.90;;;;;;4974488;28;20038;-77
2024/01/07 09:17:57;;;;;;;3.20;1.67;;;4.00;99.90;;;;;;4974981;28;20093;-77
2024/01/07 09:20:23;;;;;;;1.25;0.93;;;4.00;99.90;;;;;;4975832;28;20057;-77
2024/01/07 09:22:49;;;;;;;2.13;1.45;;;4.10;99.90;;;;;;4976299;28;20452;-77
2024/01/07 09:25:15;;;;;;;2.55;1.00;;;4.10;99.90;;;;;;4973892;28;20030;-77
2024/01/07 09:27:40;;;;;;;1.65;1.25;;;4.10;99.90;;;;;;4975099;28;20548;-76
2024/01/07 09:30:07;;;;;;;2.13;1.70;;;4.00;99.90;;;;;;4976180;28;20081;-77
2024/01/07 09:32:33;;;;;;;2.55;2.00;;;4.10;99.90;;;;;;4976249;28;20496;-77
2024/01/07 09:34:58;;;;;;;2.83;1.50;;;4.00;99.90;;;;;;4974573;28;20027;-76
2024/01/07 09:37:25;;;;;;;1.33;1.23;;;4.00;99.90;;;;;;4974056;28;20026;-77
2024/01/07 09:39:51;;;;;;;1.65;1.25;;;3.90;99.90;;;;;;4975353;28;20023;-77
2024/01/07 09:42:19;;;;;;;1.83;1.25;;;3.90;99.90;;;;;;4975687;28;20038;-77
2024/01/07 09:44:45;;;;;;;1.40;1.30;;;3.90;99.90;;;;;;4974653;28;20493;-77
2024/01/07 09:47:15;;;;;;;1.33;1.23;;;4.00;99.90;;;;;;4974783;28;20035;-77
2024/01/07 09:49:42;;;;;;;1.20;1.10;;;3.90;99.90;;;;;;4976545;28;20031;-77
2024/01/07 09:52:09;;;;;;;1.92;1.42;;;4.00;99.90;;;;;;4973223;28;20145;-77
2024/01/07 09:54:40;;;;;;;1.77;1.67;;;3.90;99.90;;;;;;4973219;28;20022;-78
2024/01/07 09:57:07;;;;;;;2.78;1.70;;;4.00;99.90;;;;;;4974638;28;20025;-77
2024/01/07 09:59:35;;;;;;;2.45;1.30;;;4.00;99.90;;;;;;4974181;28;20033;-77
2024/01/07 10:02:00;;;;;;;1.88;1.30;;;3.90;99.90;;;;;;4975765;28;20070;-76
2024/01/07 10:04:30;;;;;;;1.85;1.30;;;4.00;99.90;;;;;;4975707;28;20552;-76
2024/01/07 10:06:56;;;;;;;4.07;1.67;;;4.00;99.90;;;;;;4975823;28;20027;-77
2024/01/07 10:09:23;;;;;;;1.40;1.10;;;3.90;99.90;;;;;;4974894;28;20031;-77
2024/01/07 10:11:50;;;;;;;3.40;0.73;;;3.90;99.90;;;;;;4973568;28;20082;-76
2024/01/07 10:14:16;;;;;;;1.38;1.27;;;4.20;99.90;;;;;;4972989;28;20077;-76
2024/01/07 10:16:42;;;;;;;0.80;0.75;;;4.10;99.90;;;;;;4971065;28;20389;-77
2024/01/07 10:19:08;;;;;;;1.02;0.80;;;3.90;99.90;;;;;;4971120;28;20099;-77
2024/01/07 10:21:34;;;;;;;3.30;2.00;;;3.90;99.90;;;;;;4972386;28;20042;-77
2024/01/07 10:24:13;;;;;;;1.55;1.40;;;3.90;99.90;;;;;;4971052;28;20254;-76
2024/01/07 10:26:40;;;;;;;2.22;1.80;;;3.80;99.90;;;;;;4971722;28;20054;-77
2024/01/07 10:29:07;;;;;;;1.10;1.00;;;4.00;99.90;;;;;;4970086;28;20027;-77
2024/01/07 10:31:32;;;;;;;2.35;1.50;;;3.90;99.90;;;;;;4970442;28;20633;-77
2024/01/07 10:33:58;;;;;;;2.22;1.40;;;3.90;99.90;;;;;;4972326;28;20031;-76
2024/01/07 10:36:25;;;;;;;2.92;2.08;;;4.10;99.90;;;;;;4974002;28;20034;-77
2024/01/07 10:38:51;;;;;;;6.05;1.92;;;5.70;99.90;;;;;;4973938;28;20038;-76
2024/01/07 10:41:20;;;;;;;3.92;1.67;;;6.60;99.90;;;;;;4974117;28;20600;-77
2024/01/07 10:43:47;;;;;;;2.90;1.20;;;6.60;99.90;;;;;;4974003;28;20034;-76
2024/01/07 10:46:14;;;;;;;2.60;1.52;;;6.40;99.90;;;;;;4974994;28;20421;-75
2024/01/07 10:48:53;;;;;;;2.88;1.38;;;6.20;99.90;;;;;;4974639;28;20098;-77
2024/01/07 10:51:20;;;;;;;1.90;1.20;;;6.20;99.90;;;;;;4971796;28;20054;-77
2024/01/07 10:53:55;;;;;;;1.63;1.45;;;6.40;99.90;;;;;;4974235;28;20082;-76
2024/01/07 10:56:24;;;;;;;1.80;1.63;;;6.40;99.90;;;;;;4973341;28;20019;-77
2024/01/07 10:58:52;;;;;;;3.92;2.33;;;5.90;99.90;;;;;;4972775;28;20026;-76
2024/01/07 11:01:19;;;;;;;3.65;1.33;;;5.40;99.90;;;;;;4974806;28;20078;-77
2024/01/07 11:03:55;;;;;;;1.23;0.80;;;5.10;99.90;;;;;;4976064;28;20113;-77
2024/01/07 11:06:29;;;;;;;;;;;4.90;99.90;;;;;;4978020;28;20031;-78
2024/01/07 11:09:35;;;;;;;1.63;0.88;;;4.80;99.90;;;;;;4976406;28;19942;-77
2024/01/07 11:12:01;;;;;;;4.15;2.13;;;4.70;99.90;;;;;;4978139;28;20074;-77
2024/01/07 11:14:39;;;;;;;1.75;1.40;;;4.60;99.90;;;;;;4978183;28;20105;-77
2024/01/07 11:17:06;;;;;;;1.27;1.10;;;4.70;99.90;;;;;;4978563;28;20029;-77
2024/01/07 11:19:32;;;;;;;1.73;1.35;;;4.60;99.90;;;;;;4979119;28;20027;-77
2024/01/07 11:22:24;;;;;;;1.20;0.98;;;4.60;99.90;;;;;;4979503;28;20394;-77
2024/01/07 11:24:56;;;;;;;1.95;0.95;;;4.70;99.90;;;;;;4977967;28;20030;-77
2024/01/07 11:27:22;;;;;;;1.35;1.00;;;4.60;99.90;;;;;;4977923;28;20019;-79
2024/01/07 11:29:56;;;;;;;2.78;1.10;;;4.50;99.90;;;;;;4978370;28;20035;-78
2024/01/07 11:32:25;;;;;;;1.77;1.30;;;4.40;99.90;;;;;;4976642;28;20073;-77
2024/01/07 11:34:53;;;;;;;1.75;0.75;;;4.40;99.90;;;;;;4978596;28;20023;-77
2024/01/07 11:37:19;;;;;;;1.30;1.20;;;4.40;99.90;;;;;;4976913;28;20027;-76
2024/01/07 11:39:46;;;;;;;2.50;1.25;;;4.60;99.90;;;;;;4977862;28;20026;-79
2024/01/07 11:42:12;;;;;;;1.98;1.20;;;4.70;99.90;;;;;;4977342;28;20058;-77
2024/01/07 11:44:48;;;;;;;2.97;0.95;;;4.60;99.90;;;;;;4977274;28;20027;-77
2024/01/07 11:47:14;;;;;;;;;;;4.60;99.90;;;;;;4976907;28;20023;-75
2024/01/07 11:49:40;;;;;;;;;;;4.40;99.90;;;;;;4979150;28;20005;-77
2024/01/07 11:52:06;;;;;;;1.10;1.00;;;4.40;99.90;;;;;;4984439;28;19952;-76
2024/01/07 11:54:31;;;;;;;2.28;1.25;;;4.50;99.90;;;;;;4988653;28;20324;-76
2024/01/07 11:56:57;;;;;;;1.05;0.98;;;4.50;99.90;;;;;;4988012;28;20425;-79
2024/01/07 11:59:23;;;;;;;4.32;1.77;;;4.40;99.90;;;;;;4980168;28;20054;-77
2024/01/07 12:01:49;;;;;;;2.38;1.63;;;4.40;99.90;;;;;;4976320;28;20030;-77
2024/01/07 12:04:15;;;;;;;1.90;1.70;;;4.50;99.90;;;;;;4976107;28;20077;-77
2024/01/07 12:06:41;;;;;;;2.80;1.40;;;4.60;99.90;;;;;;4975960;28;20046;-77
2024/01/07 12:09:07;;;;;;;2.50;0.90;;;4.60;99.90;;;;;;4977569;28;20504;-77
2024/01/07 12:11:33;;;;;;;1.13;1.00;;;4.60;99.90;;;;;;4977869;28;20118;-76
2024/01/07 12:13:59;;;;;;;1.42;1.30;;;4.60;99.90;;;;;;4975363;28;20083;-77
2024/01/07 12:16:25;;;;;;;1.00;1.00;;;4.60;99.90;;;;;;4977317;28;20389;-77
2024/01/07 12:18:51;;;;;;;1.58;1.35;;;4.60;99.90;;;;;;4977874;28;20027;-78
2024/01/07 12:21:23;;;;;;;5.13;2.40;;;4.50;99.90;;;;;;4976593;28;20441;-78
2024/01/07 12:23:50;;;;;;;3.85;2.45;;;4.50;99.90;;;;;;4976268;28;20078;-78
2024/01/07 12:26:17;;;;;;;2.40;2.05;;;4.60;99.90;;;;;;4976323;28;20196;-77
2024/01/07 12:28:43;;;;;;;2.30;1.65;;;4.60;99.90;;;;;;4976387;28;20027;-77
2024/01/07 12:31:09;;;;;;;4.75;1.45;;;4.60;99.90;;;;;;4976291;28;20101;-78
2024/01/07 12:33:38;;;;;;;2.40;1.50;;;4.70;99.90;;;;;;4977035;28;20393;-77
2024/01/07 12:36:04;;;;;;;3.08;1.60;;;4.60;99.90;;;;;;4975903;28;20077;-78
2024/01/07 12:38:30;;;;;;;4.00;1.60;;;4.50;99.90;;;;;;4975705;28;20477;-77
2024/01/07 12:40:56;;;;;;;2.22;1.50;;;4.50;99.90;;;;;;4977179;28;20089;-77
2024/01/07 12:43:22;;;;;;;1.98;1.40;;;4.50;99.90;;;;;;4977199;28;20038;-77
2024/01/07 12:45:48;;;;;;;9.82;1.90;;;4.60;99.90;;;;;;4976444;28;20025;-77
2024/01/07 12:48:14;;;;;;;2.70;1.98;;;4.60;99.90;;;;;;4976244;28;20037;-77
2024/01/07 12:50:40;;;;;;;2.28;1.50;;;4.60;99.90;;;;;;4975773;28;20026;-77
2024/01/07 12:53:06;;;;;;;2.13;1.40;;;4.50;99.90;;;;;;4976193;28;20029;-77